Athens, LA

7:09 PM CDT on July 07, 2015 (GMT -0500)
Germantown | | Change Station
CLOSE
Current Station
Personal Weather Station
Location: Minden, LA
Elevation: 384 ft
Nearby Weather Stations

Elev 384 ft 32.67 °N, 93.25 °W | Updated 21 seconds ago

Mostly Cloudy
Mostly Cloudy
89.1 °F
Feels Like 99 °F
N
2.7
Wind Variable Wind from ESE

Today
High -- | Low -- °F
--% Chance of Precip.
Yesterday
High -- | Low -- °F
Precip. -- in
6:10 AM 8:23 PM
Waning Gibbous, 60% visible
Pressure 29.98 in
Visibility 10.0 miles
Clouds Clear
Heat Index 99 °F
Dew Point 74 °F
Humidity 62%
Rainfall 0.00 in
Snow Depth Not available.
UV 1 out of 12
Pollen 3.70 out of 12
Air Quality Not available.
Flu Activity Not available.
METAR KMNE 072355Z AUTO 17005KT 10SM CLR 32/22 A2998 RMK AO2 T03150222 10343 20314

More Conditions Fewer Conditions

Pressure 29.98 in
Visibility 10.0 miles
Clouds Clear
Heat Index 99 °F
Dew Point 74 °F
Humidity 62%
Rainfall 0.00 in
Snow Depth Not available.
UV 1 out of 12
Pollen 3.70 out of 12
Air Quality Not available.
Flu Activity Not available.
METAR KMNE 072355Z AUTO 17005KT 10SM CLR 32/22 A2998 RMK AO2 T03150222 10343 20314

More Conditions Fewer Conditions

Nowcast | as of 5:45 PM CDT on July 7, 2015

Widely scattered showers and isolated thunderstorms will linger into the early evening hours. The activity is more concentrated across portions of McCurtain County in southeast Oklahoma and southwest Arkansas from America...to dequeen...to Dierks. An outflow boundary is south of Texarkana...touching off showers from just north of Plain Dealing...to Taylor. Also...in northeast Texas from activity is seen from Jacksonville Texas...to Longview and from Palestine... to Athens and terrel. Isolated showers are peppered over Toledo Bend country. If thunder roars...go indoors. Any downpour may gust the wind to 30 mph and bring a tenth of an inch. Most of this will fade away by sunset.

×

10-Day Weather Forecast

×

Almanac

Astronomy

Jul. 07, 2015 Rise Set
Actual Time
Civil Twilight
Nautical Twilight
Astronomical Twilight
Moon
Length of Visible Light
Length of Day
Tomorrow will be .
, % of the Moon is Illuminated

Today's Extremes

State Highs State Lows

Community

WunderPhotos

Upload Photos

1,835,961 photos uploaded!

WunderBlogs® & News

Nearby

Air Quality

  Air Quality AQ Index Pollutant
Not available.

Snow Depth

Station Depth Elevation

Earthquake Activity

City Distance Mag. Time & Date
Minimum magnitude displayed is 2.5.

Coastal Water Temperatures

Place Temperature

Stations

Nearby Weather Stations

Station Location Temp. Windchill Dew Point Humidity Wind Precip. Elev Updated Type